• Join FlightAware (Why Join?)
  • Login
  • US Flag 
09:00AM EDT


 

Airport Tracker/Info


-or-


 

Live Flight TrackerFlight Track Log ✈ SKW5542 ✈ 24-Apr-2013 ✈ CYQT - KORD

Flight Track Log - Related Links

Times and Time Zones

All times are in EDT time to prevent confusion due to time zone crossing. See the SKW5542 flight status page for this flight to view local times or setup timezone preferences in your user account.

Time Position Orientation Groundspeed Altitude Reporting Facility
EDT Latitude Longitude Course Direction KTS MPH feet Rate Location/Type
06:00AM 48.3667 -89.2833 156° South 140 161 700  Level Winnipeg Center
06:01AM 48.3333 -89.3333 225° Southwest 160 184 2,500 1,680 Climbing Winnipeg Center
06:02AM 48.3000 -89.3667 214° Southwest 250 288 4,100 2,400 Climbing Winnipeg Center
06:03AM 48.2333 -89.3333 162° South 270 311 7,300 2,940 Climbing Winnipeg Center
06:04AM 48.0192 -89.0654 152° Southeast  Level FlightAware Approximate
06:04AM 48.1500 -89.3000 165° South 280 322 10,000  Level Winnipeg Center
06:05AM 47.9318 -89.0044 156° South  Level FlightAware Approximate
06:05AM 48.0667 -89.2500 158° South 330 380 11,500  Level Winnipeg Center
06:06AM 47.8559 -88.9539 156° South  Level FlightAware Approximate
06:06AM 47.9833 -89.2000 158° South 340 391 13,700  Level Winnipeg Center
06:07AM 47.8833 -89.1667 167° South 350 403 15,900 1,980 Climbing Winnipeg Center
06:08AM 47.8000 -89.1000 152° Southeast 360 414 17,700 1,680 Climbing Winnipeg Center
06:09AM 47.7000 -89.0667 167° South 370 426 19,300 1,500 Climbing Winnipeg Center
06:10AM 47.6000 -89.0000 156° South 370 426 20,700 1,140 Climbing Winnipeg Center
06:11AM 47.5856 -89.0161 217° Southwest 375 432 21,000 1,140 Climbing Minneapolis Center
06:12AM 47.4847 -88.9642 161° South 382 440 22,400 1,140 Climbing Minneapolis Center
06:13AM 47.3836 -88.9103 160° South 385 443 23,400 960 Climbing Minneapolis Center
06:14AM 47.2794 -88.8556 160° South 394 453 24,400 900 Climbing Minneapolis Center
06:15AM 47.1744 -88.8022 161° South 399 459 25,300 900 Climbing Minneapolis Center
06:16AM 47.0694 -88.7472 160° South 401 461 26,300 960 Climbing Minneapolis Center
06:17AM 46.9633 -88.6922 161° South 402 463 27,300 840 Climbing Minneapolis Center
06:18AM 46.8594 -88.6389 161° South 397 457 28,000 300 Climbing Minneapolis Center
06:19AM 46.7536 -88.5853 161° South 400 460 28,000  Level Minneapolis Center
06:20AM 46.6417 -88.5278 161° South 420 483 28,000  Level Minneapolis Center
06:21AM 46.5306 -88.4711 161° South 422 486 28,000  Level Minneapolis Center
06:22AM 46.4178 -88.4142 161° South 426 490 28,000  Level Minneapolis Center
06:23AM 46.3067 -88.3581 161° South 424 488 28,000  Level Minneapolis Center
06:24AM 46.1950 -88.3014 161° South 422 486 28,000  Level Minneapolis Center
06:25AM 46.0842 -88.2461 161° South 420 483 28,000  Level Minneapolis Center
06:26AM 45.9747 -88.1925 161° South 415 478 28,000  Level Minneapolis Center
06:27AM 45.8592 -88.1344 161° South 414 476 28,000  Level Minneapolis Center
06:28AM 45.7525 -88.1128 172° South 393 452 28,000  Level Minneapolis Center
06:29AM 45.6464 -88.1144 181° South 382 440 28,000  Level Minneapolis Center
06:30AM 45.5406 -88.1150 180° South 382 440 28,000 -60 Level Minneapolis Center
06:31AM 45.4361 -88.1158 180° South 377 434 27,900  Descending Minneapolis Center
06:32AM 45.3328 -88.1158 180° South 374 430 28,000 -180 Climbing Minneapolis Center
06:33AM 45.2308 -88.1167 180° South 369 425 27,600 -720 Descending Minneapolis Center
06:34AM 45.1292 -88.1186 181° South 367 422 26,600 -1,020 Descending Minneapolis Center
06:35AM 45.0256 -88.1183 180° South 372 428 25,600 -1,020 Descending Minneapolis Center
06:36AM 44.9206 -88.1208 181° South 377 434 24,600 -1,020 Descending Minneapolis Center
06:37AM 44.8139 -88.1206 180° South 382 440 23,600 -840 Descending Minneapolis Center
06:38AM 44.6967 -88.1200 180° South 390 449 23,000 -300 Descending Minneapolis Center
06:39AM 44.5881 -88.1211 180° South 390 449 23,000  Level Minneapolis Center
06:40AM 44.4797 -88.1211 180° South 390 449 23,000  Level Minneapolis Center
06:41AM 44.3700 -88.1211 180° South 392 451 23,000  Level Minneapolis Center
06:42AM 44.2608 -88.1214 180° South 391 450 23,000  Level Minneapolis Center
06:43AM 44.1539 -88.1214 180° South 386 444 23,000 -900 Level Minneapolis Center
06:44AM 44.0442 -88.1228 181° South 390 449 21,300 -2,040 Descending Minneapolis Center
06:45AM 43.9358 -88.1247 181° South 390 449 19,000 -2,280 Descending Minneapolis Center
06:46AM 43.8306 -88.1247 180° South 379 436 16,800 -2,280 Descending Minneapolis Center
06:47AM 43.7233 -88.1272 181° South 381 438 14,500 -1,860 Descending Minneapolis Center
06:48AM 43.6150 -88.1264 180° South 386 444 13,100 -1,080 Descending Minneapolis Center
06:48AM 43.5619 -88.1256 179° South 384 442 13,000 -120 Descending Chicago Center
06:49AM 43.4544 -88.1261 180° South 382 440 13,000 -120 Level Chicago Center
06:50AM 43.3528 -88.0789 161° South 400 460 12,800 -600 Descending Chicago Center
06:51AM 43.2592 -87.9972 148° Southeast 396 456 11,800 -1,020 Descending Chicago Center
06:52AM 43.1664 -87.9189 148° Southeast 392 451 10,800 -900 Descending Chicago Center
06:53AM 43.0764 -87.8439 149° Southeast 380 437 10,000 -420 Descending Chicago Center
06:54AM 42.9883 -87.7689 148° Southeast 373 429 10,000  Level Chicago Center
06:55AM 42.9000 -87.6939 148° Southeast 373 429 10,000 -60 Level Chicago Center
06:56AM 42.8100 -87.6722 170° South 322 371 9,900 -960 Descending Chicago Center
06:57AM 42.7303 -87.6642 176° South 291 335 8,100 -1,440 Descending Chicago Center
06:58AM 42.6503 -87.6581 177° South 288 331 7,000 -540 Descending Chicago Center
07:00AM 42.5725 -87.6511 176° South 280 322 7,000  Level Chicago Center
07:01AM 42.4922 -87.6406 174° South 287 330 7,000  Level Chicago Center
07:02AM 42.4144 -87.6147 166° South 286 329 7,000 -240 Level Chicago Center
07:03AM 42.3381 -87.5897 166° South 282 325 6,600 -780 Descending Chicago Center
07:04AM 42.2644 -87.5683 168° South 282 325 5,500 -1,320 Descending Chicago Center
07:05AM 42.1900 -87.5544 172° South 274 315 4,000 -780 Descending Chicago Center
07:06AM 42.1031 -87.5928 198° South 276 318 4,000  Level Chicago Center
07:06AM 42.0667 -87.6000 188° South 260 299 4,000  Level Chicago TRACON